sensor_id;sensor_type;location;lat;lon;timestamp;temperature;humidity
19864;DHT22;10094;48.820;9.226;2023-07-30T00:00:29;18.80;99.90
19864;DHT22;10094;48.820;9.226;2023-07-30T00:07:12;18.60;99.90
19864;DHT22;10094;48.820;9.226;2023-07-30T00:13:54;18.50;99.90
19864;DHT22;10094;48.820;9.226;2023-07-30T00:20:38;18.70;99.90
19864;DHT22;10094;48.820;9.226;2023-07-30T00:27:20;18.70;99.90
19864;DHT22;10094;48.820;9.226;2023-07-30T00:34:06;18.60;99.90
19864;DHT22;10094;48.820;9.226;2023-07-30T00:40:49;18.60;99.90
19864;DHT22;10094;48.820;9.226;2023-07-30T00:47:32;18.70;99.90
19864;DHT22;10094;48.820;9.226;2023-07-30T00:54:16;18.70;99.90
19864;DHT22;10094;48.820;9.226;2023-07-30T01:00:59;18.70;99.90
19864;DHT22;10094;48.820;9.226;2023-07-30T01:07:42;18.70;99.90
19864;DHT22;10094;48.820;9.226;2023-07-30T01:14:25;18.70;99.90
19864;DHT22;10094;48.820;9.226;2023-07-30T01:21:09;18.90;99.90
19864;DHT22;10094;48.820;9.226;2023-07-30T01:27:54;19.00;99.90
19864;DHT22;10094;48.820;9.226;2023-07-30T01:34:39;19.00;99.90
19864;DHT22;10094;48.820;9.226;2023-07-30T01:41:23;19.20;99.90
19864;DHT22;10094;48.820;9.226;2023-07-30T01:48:07;19.20;99.90
19864;DHT22;10094;48.820;9.226;2023-07-30T01:54:49;19.20;99.90
19864;DHT22;10094;48.820;9.226;2023-07-30T02:01:32;19.20;99.90
19864;DHT22;10094;48.820;9.226;2023-07-30T02:08:15;19.30;99.90
19864;DHT22;10094;48.820;9.226;2023-07-30T02:14:58;19.40;99.90
19864;DHT22;10094;48.820;9.226;2023-07-30T02:21:41;19.40;99.90
19864;DHT22;10094;48.820;9.226;2023-07-30T02:28:25;19.40;99.90
19864;DHT22;10094;48.820;9.226;2023-07-30T02:35:08;19.40;99.90
19864;DHT22;10094;48.820;9.226;2023-07-30T02:41:51;19.30;99.90
19864;DHT22;10094;48.820;9.226;2023-07-30T02:48:35;19.10;99.90
19864;DHT22;10094;48.820;9.226;2023-07-30T02:55:17;19.00;99.90
19864;DHT22;10094;48.820;9.226;2023-07-30T03:02:01;18.80;99.90
19864;DHT22;10094;48.820;9.226;2023-07-30T03:08:44;18.90;99.90
19864;DHT22;10094;48.820;9.226;2023-07-30T03:15:27;18.90;99.90
19864;DHT22;10094;48.820;9.226;2023-07-30T03:22:10;18.80;99.90
19864;DHT22;10094;48.820;9.226;2023-07-30T03:28:52;18.70;99.90
19864;DHT22;10094;48.820;9.226;2023-07-30T03:35:35;18.80;99.90
19864;DHT22;10094;48.820;9.226;2023-07-30T03:42:17;18.80;99.90
19864;DHT22;10094;48.820;9.226;2023-07-30T03:49:00;18.90;99.90
19864;DHT22;10094;48.820;9.226;2023-07-30T03:55:44;18.90;99.90
19864;DHT22;10094;48.820;9.226;2023-07-30T04:02:26;19.00;99.90
19864;DHT22;10094;48.820;9.226;2023-07-30T04:09:09;19.10;99.90
19864;DHT22;10094;48.820;9.226;2023-07-30T04:15:53;19.20;99.90
19864;DHT22;10094;48.820;9.226;2023-07-30T04:22:36;19.40;99.90
19864;DHT22;10094;48.820;9.226;2023-07-30T04:29:20;19.40;99.90
19864;DHT22;10094;48.820;9.226;2023-07-30T04:36:04;19.50;99.90
19864;DHT22;10094;48.820;9.226;2023-07-30T04:42:47;19.40;99.90
19864;DHT22;10094;48.820;9.226;2023-07-30T04:49:30;19.30;99.90
19864;DHT22;10094;48.820;9.226;2023-07-30T04:56:13;19.30;99.90
19864;DHT22;10094;48.820;9.226;2023-07-30T05:02:55;19.40;99.90
19864;DHT22;10094;48.820;9.226;2023-07-30T05:09:38;19.60;99.90
19864;DHT22;10094;48.820;9.226;2023-07-30T05:16:21;19.80;99.90
19864;DHT22;10094;48.820;9.226;2023-07-30T05:23:03;19.90;99.90
19864;DHT22;10094;48.820;9.226;2023-07-30T05:29:46;19.80;99.90
19864;DHT22;10094;48.820;9.226;2023-07-30T05:36:30;19.80;99.90
19864;DHT22;10094;48.820;9.226;2023-07-30T05:43:13;19.70;99.90
19864;DHT22;10094;48.820;9.226;2023-07-30T05:49:56;19.80;99.90
19864;DHT22;10094;48.820;9.226;2023-07-30T05:56:38;19.80;99.90
19864;DHT22;10094;48.820;9.226;2023-07-30T06:03:21;19.70;99.90
19864;DHT22;10094;48.820;9.226;2023-07-30T06:10:04;19.60;99.90
19864;DHT22;10094;48.820;9.226;2023-07-30T06:16:47;20.20;99.90
19864;DHT22;10094;48.820;9.226;2023-07-30T06:23:29;22.10;99.90
19864;DHT22;10094;48.820;9.226;2023-07-30T06:30:12;22.10;99.90
19864;DHT22;10094;48.820;9.226;2023-07-30T06:36:55;21.90;99.90
19864;DHT22;10094;48.820;9.226;2023-07-30T06:43:37;21.70;99.90
19864;DHT22;10094;48.820;9.226;2023-07-30T06:50:20;23.50;99.90
19864;DHT22;10094;48.820;9.226;2023-07-30T06:57:03;27.40;99.90
19864;DHT22;10094;48.820;9.226;2023-07-30T07:03:46;24.70;99.90
19864;DHT22;10094;48.820;9.226;2023-07-30T07:10:28;23.90;99.90
19864;DHT22;10094;48.820;9.226;2023-07-30T07:17:11;23.20;99.90
19864;DHT22;10094;48.820;9.226;2023-07-30T07:23:54;22.40;99.90
19864;DHT22;10094;48.820;9.226;2023-07-30T07:30:37;21.90;99.90
19864;DHT22;10094;48.820;9.226;2023-07-30T07:37:20;21.70;99.90
19864;DHT22;10094;48.820;9.226;2023-07-30T07:44:03;21.80;99.90
19864;DHT22;10094;48.820;9.226;2023-07-30T07:50:46;21.80;99.90
19864;DHT22;10094;48.820;9.226;2023-07-30T07:57:29;21.30;99.90
19864;DHT22;10094;48.820;9.226;2023-07-30T08:04:12;21.20;99.90
19864;DHT22;10094;48.820;9.226;2023-07-30T08:10:55;21.30;99.90
19864;DHT22;10094;48.820;9.226;2023-07-30T08:17:38;22.30;99.90
19864;DHT22;10094;48.820;9.226;2023-07-30T08:24:20;22.70;99.90
19864;DHT22;10094;48.820;9.226;2023-07-30T08:31:03;23.00;99.90
19864;DHT22;10094;48.820;9.226;2023-07-30T08:37:45;23.50;99.90
19864;DHT22;10094;48.820;9.226;2023-07-30T08:44:29;25.90;99.90
19864;DHT22;10094;48.820;9.226;2023-07-30T08:51:12;27.00;99.90
19864;DHT22;10094;48.820;9.226;2023-07-30T08:57:57;27.20;99.90
19864;DHT22;10094;48.820;9.226;2023-07-30T09:04:41;26.50;99.90
19864;DHT22;10094;48.820;9.226;2023-07-30T09:11:26;25.90;99.90
19864;DHT22;10094;48.820;9.226;2023-07-30T09:18:10;26.30;99.90
19864;DHT22;10094;48.820;9.226;2023-07-30T09:24:56;27.60;99.90
19864;DHT22;10094;48.820;9.226;2023-07-30T09:31:47;27.20;99.90
19864;DHT22;10094;48.820;9.226;2023-07-30T09:38:31;26.60;99.90
19864;DHT22;10094;48.820;9.226;2023-07-30T09:45:24;26.20;99.90
19864;DHT22;10094;48.820;9.226;2023-07-30T09:52:07;25.20;99.90
19864;DHT22;10094;48.820;9.226;2023-07-30T09:58:49;25.70;99.90
19864;DHT22;10094;48.820;9.226;2023-07-30T10:05:33;25.20;99.90
19864;DHT22;10094;48.820;9.226;2023-07-30T10:12:22;25.20;99.90
19864;DHT22;10094;48.820;9.226;2023-07-30T10:19:06;26.30;99.90
19864;DHT22;10094;48.820;9.226;2023-07-30T10:25:50;27.60;97.70
19864;DHT22;10094;48.820;9.226;2023-07-30T10:32:42;28.50;93.80
19864;DHT22;10094;48.820;9.226;2023-07-30T10:39:42;29.50;91.10
19864;DHT22;10094;48.820;9.226;2023-07-30T10:46:25;28.90;91.10
19864;DHT22;10094;48.820;9.226;2023-07-30T10:53:10;29.40;90.80
19864;DHT22;10094;48.820;9.226;2023-07-30T10:59:53;29.50;90.80
19864;DHT22;10094;48.820;9.226;2023-07-30T11:06:37;27.80;92.80
19864;DHT22;10094;48.820;9.226;2023-07-30T11:13:20;26.90;93.80
19864;DHT22;10094;48.820;9.226;2023-07-30T11:20:03;27.00;93.60
19864;DHT22;10094;48.820;9.226;2023-07-30T11:26:57;27.30;93.20
19864;DHT22;10094;48.820;9.226;2023-07-30T11:33:43;26.80;94.20
19864;DHT22;10094;48.820;9.226;2023-07-30T11:40:26;26.50;97.30
19864;DHT22;10094;48.820;9.226;2023-07-30T11:47:09;25.20;98.50
19864;DHT22;10094;48.820;9.226;2023-07-30T11:53:57;24.90;99.90
19864;DHT22;10094;48.820;9.226;2023-07-30T12:00:41;24.40;99.90
19864;DHT22;10094;48.820;9.226;2023-07-30T12:07:25;24.30;99.90
19864;DHT22;10094;48.820;9.226;2023-07-30T12:14:08;24.40;99.90
19864;DHT22;10094;48.820;9.226;2023-07-30T12:20:52;24.80;99.90
19864;DHT22;10094;48.820;9.226;2023-07-30T12:27:35;24.90;99.90
19864;DHT22;10094;48.820;9.226;2023-07-30T12:34:17;24.90;99.90
19864;DHT22;10094;48.820;9.226;2023-07-30T12:41:00;25.00;99.90
19864;DHT22;10094;48.820;9.226;2023-07-30T12:47:42;25.10;99.90
19864;DHT22;10094;48.820;9.226;2023-07-30T12:54:25;24.70;99.90
19864;DHT22;10094;48.820;9.226;2023-07-30T13:01:08;24.90;99.90
19864;DHT22;10094;48.820;9.226;2023-07-30T13:07:51;24.80;99.90
19864;DHT22;10094;48.820;9.226;2023-07-30T13:14:35;24.60;99.90
19864;DHT22;10094;48.820;9.226;2023-07-30T13:21:17;24.90;97.90
19864;DHT22;10094;48.820;9.226;2023-07-30T13:28:00;25.50;96.60
19864;DHT22;10094;48.820;9.226;2023-07-30T13:34:43;25.70;94.90
19864;DHT22;10094;48.820;9.226;2023-07-30T13:41:26;25.90;95.90
19864;DHT22;10094;48.820;9.226;2023-07-30T13:48:08;25.10;96.30
19864;DHT22;10094;48.820;9.226;2023-07-30T13:54:52;24.80;97.00
19864;DHT22;10094;48.820;9.226;2023-07-30T14:01:34;24.90;96.90
19864;DHT22;10094;48.820;9.226;2023-07-30T14:08:18;25.20;95.90
19864;DHT22;10094;48.820;9.226;2023-07-30T14:15:01;25.10;94.90
19864;DHT22;10094;48.820;9.226;2023-07-30T14:21:44;24.80;95.60
19864;DHT22;10094;48.820;9.226;2023-07-30T14:28:26;24.70;96.50
19864;DHT22;10094;48.820;9.226;2023-07-30T14:35:09;24.50;96.50
19864;DHT22;10094;48.820;9.226;2023-07-30T14:41:52;24.90;95.70
19864;DHT22;10094;48.820;9.226;2023-07-30T14:48:34;24.60;95.40
19864;DHT22;10094;48.820;9.226;2023-07-30T14:55:17;24.40;94.70
19864;DHT22;10094;48.820;9.226;2023-07-30T15:01:59;24.50;94.90
19864;DHT22;10094;48.820;9.226;2023-07-30T15:08:42;24.30;93.90
19864;DHT22;10094;48.820;9.226;2023-07-30T15:15:25;24.40;94.00
19864;DHT22;10094;48.820;9.226;2023-07-30T15:22:08;24.30;92.80
19864;DHT22;10094;48.820;9.226;2023-07-30T15:28:50;24.30;93.30
19864;DHT22;10094;48.820;9.226;2023-07-30T15:35:33;24.30;92.90
19864;DHT22;10094;48.820;9.226;2023-07-30T15:42:17;24.30;93.00
19864;DHT22;10094;48.820;9.226;2023-07-30T15:48:59;24.30;91.60
19864;DHT22;10094;48.820;9.226;2023-07-30T15:55:42;24.20;91.30
19864;DHT22;10094;48.820;9.226;2023-07-30T16:02:27;24.10;91.40
19864;DHT22;10094;48.820;9.226;2023-07-30T16:09:10;24.00;91.90
19864;DHT22;10094;48.820;9.226;2023-07-30T16:15:53;23.70;91.70
19864;DHT22;10094;48.820;9.226;2023-07-30T16:22:35;23.50;92.00
19864;DHT22;10094;48.820;9.226;2023-07-30T16:29:19;23.40;92.20
19864;DHT22;10094;48.820;9.226;2023-07-30T16:36:02;23.20;92.30
19864;DHT22;10094;48.820;9.226;2023-07-30T16:42:49;23.10;91.80
19864;DHT22;10094;48.820;9.226;2023-07-30T16:49:31;23.10;91.70
19864;DHT22;10094;48.820;9.226;2023-07-30T16:56:15;22.90;92.00
19864;DHT22;10094;48.820;9.226;2023-07-30T17:02:58;23.00;92.50
19864;DHT22;10094;48.820;9.226;2023-07-30T17:09:41;22.90;90.90
19864;DHT22;10094;48.820;9.226;2023-07-30T17:16:23;22.80;90.20
19864;DHT22;10094;48.820;9.226;2023-07-30T17:23:06;22.80;90.40
19864;DHT22;10094;48.820;9.226;2023-07-30T17:29:49;23.00;90.20
19864;DHT22;10094;48.820;9.226;2023-07-30T17:36:31;23.10;88.10
19864;DHT22;10094;48.820;9.226;2023-07-30T17:43:17;23.10;88.40
19864;DHT22;10094;48.820;9.226;2023-07-30T17:50:00;23.00;89.10
19864;DHT22;10094;48.820;9.226;2023-07-30T17:56:46;22.80;90.30
19864;DHT22;10094;48.820;9.226;2023-07-30T18:03:29;22.60;91.00
19864;DHT22;10094;48.820;9.226;2023-07-30T18:10:11;22.30;91.50
19864;DHT22;10094;48.820;9.226;2023-07-30T18:16:54;22.10;91.70
19864;DHT22;10094;48.820;9.226;2023-07-30T18:23:37;21.80;92.10
19864;DHT22;10094;48.820;9.226;2023-07-30T18:30:22;21.70;92.70
19864;DHT22;10094;48.820;9.226;2023-07-30T18:37:05;21.60;93.50
19864;DHT22;10094;48.820;9.226;2023-07-30T18:43:47;21.40;93.80
19864;DHT22;10094;48.820;9.226;2023-07-30T18:50:31;21.40;94.20
19864;DHT22;10094;48.820;9.226;2023-07-30T18:57:14;21.30;94.70
19864;DHT22;10094;48.820;9.226;2023-07-30T19:03:56;21.20;95.20
19864;DHT22;10094;48.820;9.226;2023-07-30T19:10:39;21.20;95.80
19864;DHT22;10094;48.820;9.226;2023-07-30T19:17:24;21.00;98.50
19864;DHT22;10094;48.820;9.226;2023-07-30T19:24:07;20.90;97.80
19864;DHT22;10094;48.820;9.226;2023-07-30T19:30:51;20.80;99.90
19864;DHT22;10094;48.820;9.226;2023-07-30T19:37:39;20.70;99.90
19864;DHT22;10094;48.820;9.226;2023-07-30T19:44:28;20.50;99.90
19864;DHT22;10094;48.820;9.226;2023-07-30T19:51:14;20.30;99.90
19864;DHT22;10094;48.820;9.226;2023-07-30T19:58:00;20.20;99.90
19864;DHT22;10094;48.820;9.226;2023-07-30T20:05:00;20.10;99.90
19864;DHT22;10094;48.820;9.226;2023-07-30T20:11:44;20.00;99.90
19864;DHT22;10094;48.820;9.226;2023-07-30T20:18:30;19.80;99.90
19864;DHT22;10094;48.820;9.226;2023-07-30T20:25:31;19.70;99.90
19864;DHT22;10094;48.820;9.226;2023-07-30T20:32:17;19.60;99.90
19864;DHT22;10094;48.820;9.226;2023-07-30T20:39:23;19.40;99.90
19864;DHT22;10094;48.820;9.226;2023-07-30T20:46:09;19.40;99.90
19864;DHT22;10094;48.820;9.226;2023-07-30T20:53:01;19.30;99.90
19864;DHT22;10094;48.820;9.226;2023-07-30T20:59:46;19.20;99.90
19864;DHT22;10094;48.820;9.226;2023-07-30T21:06:30;19.00;99.90
19864;DHT22;10094;48.820;9.226;2023-07-30T21:13:49;18.90;99.90
19864;DHT22;10094;48.820;9.226;2023-07-30T21:20:41;18.70;99.90
19864;DHT22;10094;48.820;9.226;2023-07-30T21:27:26;18.50;99.90
19864;DHT22;10094;48.820;9.226;2023-07-30T21:34:22;18.40;99.90
19864;DHT22;10094;48.820;9.226;2023-07-30T21:41:08;18.30;99.90
19864;DHT22;10094;48.820;9.226;2023-07-30T21:47:57;18.20;99.90
19864;DHT22;10094;48.820;9.226;2023-07-30T21:54:41;18.00;99.90
19864;DHT22;10094;48.820;9.226;2023-07-30T22:01:25;17.90;99.90
19864;DHT22;10094;48.820;9.226;2023-07-30T22:08:11;17.80;99.90
19864;DHT22;10094;48.820;9.226;2023-07-30T22:15:04;17.70;99.90
19864;DHT22;10094;48.820;9.226;2023-07-30T22:21:56;17.70;99.90
19864;DHT22;10094;48.820;9.226;2023-07-30T22:28:41;17.60;99.90
19864;DHT22;10094;48.820;9.226;2023-07-30T22:35:25;17.50;99.90
19864;DHT22;10094;48.820;9.226;2023-07-30T22:42:11;17.50;99.90
19864;DHT22;10094;48.820;9.226;2023-07-30T22:48:57;17.60;99.90
19864;DHT22;10094;48.820;9.226;2023-07-30T22:55:43;17.50;99.90
19864;DHT22;10094;48.820;9.226;2023-07-30T23:02:29;17.60;99.90
19864;DHT22;10094;48.820;9.226;2023-07-30T23:09:16;17.50;99.90
19864;DHT22;10094;48.820;9.226;2023-07-30T23:16:01;17.60;99.90
19864;DHT22;10094;48.820;9.226;2023-07-30T23:22:55;17.60;99.90
19864;DHT22;10094;48.820;9.226;2023-07-30T23:30:32;17.60;99.90
19864;DHT22;10094;48.820;9.226;2023-07-30T23:37:16;17.50;99.90
19864;DHT22;10094;48.820;9.226;2023-07-30T23:44:01;17.50;99.90
19864;DHT22;10094;48.820;9.226;2023-07-30T23:50:44;17.50;99.90
19864;DHT22;10094;48.820;9.226;2023-07-30T23:57:45;17.40;99.90
